Time;durP1;ratioP1;P1;durP2;ratioP2;P2;SDS_P1;SDS_P2;PMS_P1;PMS_P2;Temp;Humidity;BMP_temperature;BMP_pressure;BME280_temperature;BME280_humidity;BME280_pressure;Samples;Min_cycle;Max_cycle;Signal;HPM_P1;HPM_P2
2022/04/01 00:00:10;;;;;;;;;;;;;;;8.97;49.72;100637.25;5052877;28;19924;-74
2022/04/01 00:02:36;;;;;;;;;;;;;;;8.43;50.34;100640.53;5052004;28;19921;-74
2022/04/01 00:05:02;;;;;;;;;;;;;;;9.45;47.67;100646.25;5052243;28;19928;-75
2022/04/01 00:07:27;;;;;;;;;;;;;;;9.31;48.31;100649.31;5052826;28;19905;-73
2022/04/01 00:09:52;;;;;;;;;;;;;;;8.70;49.69;100641.19;5051997;28;20003;-76
2022/04/01 00:12:17;;;;;;;;;;;;;;;8.61;50.40;100653.19;5052265;28;19916;-75
2022/04/01 00:14:44;;;;;;;;;;;;;;;8.67;50.68;100655.00;5052453;28;20303;-75
2022/04/01 00:17:09;;;;;;;;;;;;;;;8.46;51.19;100655.34;5052363;28;19917;-74
2022/04/01 00:19:34;;;;;;;;;;;;;;;9.17;48.46;100659.34;5052490;28;19955;-74
2022/04/01 00:22:00;;;;;;;;;;;;;;;9.43;47.84;100671.66;5052150;28;19941;-75
2022/04/01 00:24:25;;;;;;;;;;;;;;;9.60;47.25;100662.81;5052098;28;20295;-74
2022/04/01 00:26:51;;;;;;;;;;;;;;;10.28;45.82;100670.69;5052439;28;19916;-74
2022/04/01 00:29:16;;;;;;;;;;;;;;;9.58;47.17;100664.91;5051688;28;20298;-74
2022/04/01 00:31:45;;;;;;;;;;;;;;;9.54;47.64;100655.66;5052198;28;19963;-74
2022/04/01 00:34:17;;;;;;;;;;;;;;;9.20;48.65;100674.97;5052127;28;19905;-74
2022/04/01 00:36:46;;;;;;;;;;;;;;;9.02;48.97;100666.88;5049807;28;20019;-76
2022/04/01 00:39:16;;;;;;;;;;;;;;;9.03;49.42;100671.22;5051468;28;19916;-74
2022/04/01 00:41:44;;;;;;;;;;;;;;;9.66;47.16;100671.84;5047783;28;19917;-75
2022/04/01 00:44:20;;;;;;;;;;;;;;;8.55;50.05;100678.97;5051491;28;20019;-75
2022/04/01 00:46:47;;;;;;;;;;;;;;;8.78;49.40;100681.94;5049494;28;20007;-75
2022/04/01 00:49:12;;;;;;;;;;;;;;;9.42;48.37;100683.44;5052175;28;19904;-74
2022/04/01 00:51:40;;;;;;;;;;;;;;;9.03;48.97;100681.94;5051580;28;19920;-75
2022/04/01 00:54:05;;;;;;;;;;;;;;;10.21;45.99;100688.75;5050011;28;19913;-75
2022/04/01 00:56:32;;;;;;;;;;;;;;;8.96;48.45;100678.50;5051257;28;19924;-75
2022/04/01 00:58:58;;;;;;;;;;;;;;;9.13;48.23;100692.16;5051613;28;19935;-74
2022/04/01 01:01:23;;;;;;;;;;;;;;;9.02;49.01;100690.19;5051605;28;19921;-76
2022/04/01 01:03:49;;;;;;;;;;;;;;;9.08;48.99;100694.69;5051323;28;19991;-76
2022/04/01 01:06:15;;;;;;;;;;;;;;;8.36;50.73;100697.84;5050964;28;20376;-76
2022/04/01 01:08:41;;;;;;;;;;;;;;;8.68;49.94;100692.31;5051440;28;20063;-77
2022/04/01 01:11:06;;;;;;;;;;;;;;;8.00;51.67;100688.50;5051574;28;19921;-76
2022/04/01 01:13:32;;;;;;;;;;;;;;;8.71;50.28;100697.22;5052223;28;19962;-76
2022/04/01 01:15:57;;;;;;;;;;;;;;;8.54;50.46;100692.59;5051781;28;19920;-76
2022/04/01 01:18:22;;;;;;;;;;;;;;;8.88;49.77;100683.28;5051853;28;19913;-75
2022/04/01 01:20:48;;;;;;;;;;;;;;;8.04;51.49;100693.44;5051766;28;19916;-77
2022/04/01 01:23:13;;;;;;;;;;;;;;;9.30;48.59;100686.00;5052065;28;19949;-79
2022/04/01 01:25:38;;;;;;;;;;;;;;;8.69;49.85;100685.06;5052094;28;19913;-77
2022/04/01 01:28:04;;;;;;;;;;;;;;;8.84;49.12;100690.94;5050070;28;19921;-77
2022/04/01 01:30:29;;;;;;;;;;;;;;;8.82;49.35;100696.50;5052084;28;19917;-76
2022/04/01 01:32:55;;;;;;;;;;;;;;;9.25;49.03;100693.09;5052158;28;20443;-78
2022/04/01 01:35:20;;;;;;;;;;;;;;;9.43;47.50;100693.13;5052067;28;20326;-77
2022/04/01 01:37:45;;;;;;;;;;;;;;;9.14;49.07;100699.16;5051373;28;19939;-78
2022/04/01 01:40:11;;;;;;;;;;;;;;;8.41;50.46;100692.69;5051942;28;20023;-78
2022/04/01 01:42:36;;;;;;;;;;;;;;;8.88;49.67;100697.53;5051347;28;20405;-78
2022/04/01 01:45:02;;;;;;;;;;;;;;;8.45;49.96;100692.00;5051260;28;19912;-79
2022/04/01 01:47:28;;;;;;;;;;;;;;;9.05;49.32;100703.16;5051583;28;19959;-77
2022/04/01 01:55:21;;;;;;;;;;;;;;;8.82;48.97;100711.78;5051499;28;19924;-79
2022/04/01 01:57:46;;;;;;;;;;;;;;;8.86;48.76;100702.28;5052472;28;20356;-78
2022/04/01 02:00:11;;;;;;;;;;;;;;;9.10;48.41;100700.66;5051696;28;19912;-79
2022/04/01 02:02:37;;;;;;;;;;;;;;;8.83;49.85;100700.00;5051887;28;19925;-80
2022/04/01 02:05:03;;;;;;;;;;;;;;;8.78;49.49;100706.03;5052719;28;20029;-79
2022/04/01 02:07:28;;;;;;;;;;;;;;;8.36;50.16;100705.88;5056444;28;20004;-79
2022/04/01 02:09:53;;;;;;;;;;;;;;;8.62;49.33;100701.19;5055552;28;19913;-79
2022/04/01 02:12:18;;;;;;;;;;;;;;;9.37;47.51;100704.72;5055545;28;20020;-78
2022/04/01 02:14:44;;;;;;;;;;;;;;;9.28;48.10;100706.88;5056331;28;19916;-79
2022/04/01 02:17:09;;;;;;;;;;;;;;;8.65;49.90;100707.97;5055122;28;19921;-79
2022/04/01 02:19:34;;;;;;;;;;;;;;;8.29;49.75;100708.59;5056354;28;19918;-80
2022/04/01 02:22:00;;;;;;;;;;;;;;;8.36;50.38;100714.72;5055280;28;20004;-79
2022/04/01 02:24:25;;;;;;;;;;;;;;;9.25;48.15;100717.22;5053629;28;19921;-78
2022/04/01 02:26:51;;;;;;;;;;;;;;;8.62;49.83;100721.78;5055619;28;19996;-81
2022/04/01 02:29:21;;;;;;;;;;;;;;;8.96;48.51;100718.69;5055440;28;19963;-78
2022/04/01 02:31:47;;;;;;;;;;;;;;;8.68;49.33;100720.94;5055273;28;19917;-78
2022/04/01 02:34:12;;;;;;;;;;;;;;;8.31;49.54;100725.28;5054443;28;20327;-77
2022/04/01 02:36:38;;;;;;;;;;;;;;;9.40;47.63;100718.50;5055290;28;19916;-79
2022/04/01 02:39:05;;;;;;;;;;;;;;;8.75;49.71;100727.06;5053936;28;20369;-78
2022/04/01 02:41:31;;;;;;;;;;;;;;;8.81;49.37;100729.72;5053579;28;19928;-78
2022/04/01 02:44:08;;;;;;;;;;;;;;;8.92;48.86;100746.13;5055720;28;19958;-79
2022/04/01 02:46:34;;;;;;;;;;;;;;;8.09;51.06;100731.09;5056054;28;19909;-79
2022/04/01 02:49:00;;;;;;;;;;;;;;;8.68;49.82;100739.69;5055746;28;19912;-77
2022/04/01 02:51:25;;;;;;;;;;;;;;;8.54;50.13;100746.16;5054795;28;20062;-79
2022/04/01 02:53:50;;;;;;;;;;;;;;;8.53;50.28;100737.28;5055068;28;19935;-81
2022/04/01 02:56:15;;;;;;;;;;;;;;;8.81;49.34;100747.63;5055124;28;20273;-78
2022/04/01 02:58:40;;;;;;;;;;;;;;;8.62;49.55;100752.09;5055938;28;19970;-78
2022/04/01 03:01:06;;;;;;;;;;;;;;;8.36;50.57;100746.03;5055433;28;19916;-79
2022/04/01 03:03:31;;;;;;;;;;;;;;;8.77;49.53;100749.94;5053073;28;19924;-80
2022/04/01 03:05:57;;;;;;;;;;;;;;;8.72;49.32;100751.63;5038450;28;20090;-79
2022/04/01 03:08:22;;;;;;;;;;;;;;;8.88;48.65;100754.59;5033231;28;19917;-80
2022/04/01 03:11:06;;;;;;;;;;;;;;;8.88;49.24;100759.16;5035037;28;20341;-78
2022/04/01 03:13:31;;;;;;;;;;;;;;;8.22;50.05;100763.97;5034903;28;19973;-81
2022/04/01 03:15:56;;;;;;;;;;;;;;;8.85;49.11;100759.56;5040917;28;20039;-79
2022/04/01 03:18:23;;;;;;;;;;;;;;;8.27;51.13;100768.72;5053988;28;20320;-79
2022/04/01 03:20:48;;;;;;;;;;;;;;;8.70;50.16;100759.06;5053454;28;19917;-80
2022/04/01 03:23:13;;;;;;;;;;;;;;;8.62;49.69;100762.81;5053273;28;19969;-79
2022/04/01 03:25:38;;;;;;;;;;;;;;;8.74;49.17;100765.63;5055052;28;19966;-80
2022/04/01 03:28:04;;;;;;;;;;;;;;;7.86;51.60;100769.03;5054802;28;19924;-78
2022/04/01 03:30:29;;;;;;;;;;;;;;;8.56;50.28;100774.38;5054427;28;19935;-80
2022/04/01 03:32:55;;;;;;;;;;;;;;;8.60;49.74;100780.94;5054609;28;19917;-81
2022/04/01 03:35:20;;;;;;;;;;;;;;;8.11;51.88;100790.56;5054463;28;20342;-81
2022/04/01 03:37:45;;;;;;;;;;;;;;;8.86;49.13;100796.06;5055059;28;19913;-80
2022/04/01 03:40:14;;;;;;;;;;;;;;;8.24;50.67;100794.03;5054633;28;20008;-84
2022/04/01 03:42:39;;;;;;;;;;;;;;;9.19;48.67;100799.34;5053369;28;20012;-83
2022/04/01 03:45:06;;;;;;;;;;;;;;;8.65;49.72;100793.69;5055319;28;20332;-81
2022/04/01 03:47:41;;;;;;;;;;;;;;;8.82;49.30;100805.56;5055452;28;19962;-82
2022/04/01 03:50:11;;;;;;;;;;;;;;;7.79;51.85;100797.63;5054896;28;19916;-83
2022/04/01 03:52:36;;;;;;;;;;;;;;;8.04;51.04;100813.88;5055629;28;20003;-80
2022/04/01 03:55:04;;;;;;;;;;;;;;;8.75;49.67;100813.63;5055212;28;19924;-81
2022/04/01 03:57:33;;;;;;;;;;;;;;;9.21;47.65;100810.66;5054973;28;20366;-81
2022/04/01 03:59:59;;;;;;;;;;;;;;;8.41;49.80;100823.88;5055153;28;19959;-80
2022/04/01 04:02:25;;;;;;;;;;;;;;;8.12;51.30;100816.31;5053914;28;19920;-81
2022/04/01 04:04:51;;;;;;;;;;;;;;;8.93;48.96;100820.94;5054569;28;20007;-82
2022/04/01 04:07:17;;;;;;;;;;;;;;;9.06;48.50;100828.09;5055442;28;20007;-81
2022/04/01 04:09:43;;;;;;;;;;;;;;;8.98;48.69;100814.94;5054566;28;19917;-83
2022/04/01 04:12:13;;;;;;;;;;;;;;;7.87;51.52;100810.78;5054785;28;19920;-83
2022/04/01 04:14:44;;;;;;;;;;;;;;;8.10;50.83;100815.69;5053999;28;20380;-83
2022/04/01 04:17:11;;;;;;;;;;;;;;;9.31;47.56;100831.63;5054309;28;20000;-81
2022/04/01 04:20:03;;;;;;;;;;;;;;;9.14;47.66;100838.56;5054975;28;19913;-82
2022/04/01 04:22:40;;;;;;;;;;;;;;;7.94;51.71;100820.44;5052933;28;19932;-83
2022/04/01 04:25:10;;;;;;;;;;;;;;;8.61;49.33;100838.81;5054518;28;19913;-83
2022/04/01 04:27:36;;;;;;;;;;;;;;;8.97;48.22;100832.88;5066798;28;19924;-83
2022/04/01 04:30:07;;;;;;;;;;;;;;;9.12;48.26;100849.47;5033404;28;20304;-83
2022/04/01 04:32:34;;;;;;;;;;;;;;;8.90;47.80;100845.50;5052769;28;19986;-82
2022/04/01 04:35:04;;;;;;;;;;;;;;;9.09;47.59;100843.72;5054076;28;20061;-81
2022/04/01 04:37:30;;;;;;;;;;;;;;;8.45;49.18;100847.31;5055113;28;19935;-83
2022/04/01 04:40:07;;;;;;;;;;;;;;;8.79;48.72;100844.31;5054169;28;20011;-83
2022/04/01 04:42:33;;;;;;;;;;;;;;;8.37;49.31;100850.22;5051683;28;19931;-82
2022/04/01 04:44:58;;;;;;;;;;;;;;;9.05;47.92;100859.44;5054491;28;19912;-83
2022/04/01 04:47:28;;;;;;;;;;;;;;;8.53;48.39;100859.69;5056031;28;19917;-83
2022/04/01 04:49:57;;;;;;;;;;;;;;;8.64;48.91;100867.88;5052636;28;19995;-84
2022/04/01 04:52:23;;;;;;;;;;;;;;;9.41;46.76;100856.13;5054263;28;19932;-82
2022/04/01 04:54:50;;;;;;;;;;;;;;;9.21;47.75;100864.28;5053477;28;20360;-84
2022/04/01 04:57:18;;;;;;;;;;;;;;;8.77;48.90;100869.66;5054505;28;19916;-83
2022/04/01 04:59:45;;;;;;;;;;;;;;;8.51;49.89;100873.25;5057847;28;19975;-82
2022/04/01 05:02:14;;;;;;;;;;;;;;;8.68;49.53;100871.78;5055307;28;19920;-83
2022/04/01 05:04:58;;;;;;;;;;;;;;;8.23;50.52;100871.88;5056314;28;19909;-81
2022/04/01 05:07:32;;;;;;;;;;;;;;;9.65;47.22;100884.84;5057103;28;19944;-82
2022/04/01 05:10:07;;;;;;;;;;;;;;;8.71;48.98;100887.41;5059069;28;19920;-83
2022/04/01 05:12:36;;;;;;;;;;;;;;;8.98;48.41;100880.09;5059276;28;19975;-81
2022/04/01 05:15:08;;;;;;;;;;;;;;;8.59;48.89;100883.75;5058483;28;20395;-79
2022/04/01 05:17:37;;;;;;;;;;;;;;;8.34;49.59;100900.69;5053263;28;20387;-81
2022/04/01 05:20:15;;;;;;;;;;;;;;;8.43;49.27;100894.91;5051416;28;20267;-78
2022/04/01 05:23:01;;;;;;;;;;;;;;;8.62;48.70;100895.91;5053975;28;20091;-80
2022/04/01 05:25:30;;;;;;;;;;;;;;;8.95;48.16;100907.31;5052601;28;20133;-79
2022/04/01 05:28:00;;;;;;;;;;;;;;;8.75;48.24;100920.78;5052273;28;19960;-80
2022/04/01 05:30:28;;;;;;;;;;;;;;;9.44;46.32;100917.34;5053972;28;19928;-79
2022/04/01 05:33:10;;;;;;;;;;;;;;;8.84;47.27;100921.38;5052474;28;19985;-78
2022/04/01 05:35:37;;;;;;;;;;;;;;;9.14;46.82;100929.72;5051117;28;19947;-80
2022/04/01 05:38:04;;;;;;;;;;;;;;;8.98;46.67;100928.34;5052504;28;20000;-77
2022/04/01 05:40:29;;;;;;;;;;;;;;;8.80;47.44;100933.56;5053385;28;19924;-77
2022/04/01 05:42:59;;;;;;;;;;;;;;;9.20;46.59;100940.38;5051980;28;19913;-76
2022/04/01 05:45:26;;;;;;;;;;;;;;;9.34;46.06;100927.72;5055159;28;20015;-77
2022/04/01 05:47:52;;;;;;;;;;;;;;;9.92;44.20;100952.53;5055705;28;20446;-77
2022/04/01 05:50:20;;;;;;;;;;;;;;;8.87;47.00;100942.38;5055615;28;19927;-77
2022/04/01 05:52:47;;;;;;;;;;;;;;;10.41;43.49;100952.56;5055696;28;20295;-77
2022/04/01 05:55:13;;;;;;;;;;;;;;;10.33;43.48;100956.34;5056063;28;19912;-78
2022/04/01 05:57:38;;;;;;;;;;;;;;;10.70;42.35;100946.47;5054920;28;19948;-77
2022/04/01 06:00:05;;;;;;;;;;;;;;;9.93;43.82;100955.00;5055334;28;19960;-77
2022/04/01 06:02:43;;;;;;;;;;;;;;;10.05;42.94;100957.78;5055321;28;20340;-81
2022/04/01 06:05:15;;;;;;;;;;;;;;;9.96;42.71;100956.44;5054324;28;19916;-80
2022/04/01 06:07:49;;;;;;;;;;;;;;;10.26;42.39;100958.25;5054675;28;19912;-80
2022/04/01 06:10:29;;;;;;;;;;;;;;;10.99;40.46;100961.03;5057731;28;19977;-82
2022/04/01 06:12:55;;;;;;;;;;;;;;;10.67;41.16;100956.84;5056233;28;19938;-82
2022/04/01 06:15:29;;;;;;;;;;;;;;;11.01;40.67;100967.81;5056876;28;19916;-78
2022/04/01 06:18:07;;;;;;;;;;;;;;;11.38;39.66;100971.28;5056071;28;19920;-79
2022/04/01 06:20:34;;;;;;;;;;;;;;;11.23;39.79;100971.69;5055792;28;19917;-79
2022/04/01 06:23:05;;;;;;;;;;;;;;;9.97;42.61;100980.38;5078080;28;19916;-77
2022/04/01 06:25:34;;;;;;;;;;;;;;;10.41;41.24;100976.75;5054074;28;19935;-79
2022/04/01 06:28:15;;;;;;;;;;;;;;;10.21;42.34;100979.59;5056441;28;19939;-78
2022/04/01 06:30:41;;;;;;;;;;;;;;;10.59;41.63;100980.28;5056585;28;20016;-79
2022/04/01 06:33:06;;;;;;;;;;;;;;;11.07;40.45;100979.53;5056711;28;20046;-80
2022/04/01 06:35:38;;;;;;;;;;;;;;;11.07;40.35;100982.22;5056555;28;19962;-79
2022/04/01 06:38:05;;;;;;;;;;;;;;;10.75;40.65;100980.75;5055863;28;20128;-79
2022/04/01 06:40:33;;;;;;;;;;;;;;;10.64;41.80;100979.59;5057497;28;19944;-79
2022/04/01 06:42:58;;;;;;;;;;;;;;;11.00;41.09;100984.19;5055134;28;20368;-77
2022/04/01 06:45:24;;;;;;;;;;;;;;;11.53;39.45;100979.81;5055931;28;19920;-76
2022/04/01 06:47:49;;;;;;;;;;;;;;;11.03;40.27;100992.63;5055109;28;19921;-78
2022/04/01 06:50:16;;;;;;;;;;;;;;;11.21;40.37;100986.41;5055167;28;20354;-78
2022/04/01 06:52:42;;;;;;;;;;;;;;;11.79;39.27;100992.09;5055403;28;19912;-76
2022/04/01 06:55:11;;;;;;;;;;;;;;;11.96;39.05;100993.06;5055832;28;19909;-79
2022/04/01 06:57:36;;;;;;;;;;;;;;;10.98;40.79;101003.25;5055122;28;19916;-77
2022/04/01 07:00:05;;;;;;;;;;;;;;;10.63;41.31;101002.16;5054836;28;19971;-79
2022/04/01 07:02:31;;;;;;;;;;;;;;;10.13;42.38;101005.88;5054415;28;20429;-80
2022/04/01 07:04:56;;;;;;;;;;;;;;;11.06;40.30;101005.63;5055372;28;20015;-76
2022/04/01 07:07:21;;;;;;;;;;;;;;;10.87;40.34;101006.66;5055443;28;19989;-78
2022/04/01 07:09:46;;;;;;;;;;;;;;;10.66;41.47;101012.47;5055155;28;20015;-77
2022/04/01 07:12:12;;;;;;;;;;;;;;;10.41;40.94;101022.41;5055071;28;20364;-78
2022/04/01 07:14:37;;;;;;;;;;;;;;;10.82;40.92;101016.44;5055523;28;19917;-77
2022/04/01 07:17:02;;;;;;;;;;;;;;;11.65;39.15;101010.28;5056541;28;19979;-79
2022/04/01 07:19:28;;;;;;;;;;;;;;;10.93;40.42;101021.91;5056420;28;20069;-78
2022/04/01 07:21:53;;;;;;;;;;;;;;;11.06;40.11;101015.56;5056449;28;19917;-78
2022/04/01 07:24:19;;;;;;;;;;;;;;;11.63;38.83;101022.31;5055618;28;20382;-78
2022/04/01 07:26:44;;;;;;;;;;;;;;;10.93;39.98;101021.91;5055732;28;19916;-79
2022/04/01 07:29:10;;;;;;;;;;;;;;;10.51;40.60;101023.53;5056486;28;19978;-77
2022/04/01 07:34:24;;;;;;;;;;;;;;;9.97;39.01;101036.75;5055949;28;20402;-77
2022/04/01 07:36:50;;;;;;;;;;;;;;;10.26;38.54;101041.53;5055398;28;19916;-77
2022/04/01 07:39:15;;;;;;;;;;;;;;;9.96;39.49;101040.47;5055757;28;19913;-78
2022/04/01 07:41:41;;;;;;;;;;;;;;;11.08;37.93;101043.88;5055194;28;20348;-78
2022/04/01 07:44:07;;;;;;;;;;;;;;;10.97;37.40;101043.78;5054958;28;20333;-77
2022/04/01 07:46:32;;;;;;;;;;;;;;;10.56;38.09;101049.75;5055762;28;19923;-77
2022/04/01 07:48:57;;;;;;;;;;;;;;;10.53;38.48;101050.22;5054936;28;19912;-77
2022/04/01 07:51:23;;;;;;;;;;;;;;;11.92;37.43;101051.97;5054480;28;19928;-79
2022/04/01 07:53:48;;;;;;;;;;;;;;;10.86;37.64;101057.97;5053169;28;19939;-78
2022/04/01 07:56:13;;;;;;;;;;;;;;;11.08;37.82;101051.13;5053844;28;19916;-78
2022/04/01 07:58:38;;;;;;;;;;;;;;;11.76;37.80;101054.47;5053052;28;19936;-78
2022/04/01 08:01:04;;;;;;;;;;;;;;;11.76;36.90;101057.16;5052381;28;19983;-76
2022/04/01 08:03:29;;;;;;;;;;;;;;;12.02;37.61;101062.19;5052628;28;20422;-76
2022/04/01 08:05:54;;;;;;;;;;;;;;;10.87;39.23;101070.38;5053068;28;19917;-75
2022/04/01 08:08:20;;;;;;;;;;;;;;;11.42;38.23;101064.78;5053151;28;19924;-76
2022/04/01 08:10:45;;;;;;;;;;;;;;;10.39;41.27;101076.38;5053127;28;19917;-76
2022/04/01 08:13:11;;;;;;;;;;;;;;;11.40;38.49;101074.97;5052808;28;19909;-77
2022/04/01 08:15:37;;;;;;;;;;;;;;;11.69;38.09;101072.59;5052563;28;20009;-76
2022/04/01 08:18:02;;;;;;;;;;;;;;;10.75;39.26;101097.13;5052945;28;19917;-74
2022/04/01 08:20:27;;;;;;;;;;;;;;;10.92;39.74;101083.97;5052411;28;19917;-75
2022/04/01 08:22:52;;;;;;;;;;;;;;;11.45;39.15;101082.38;5052870;28;19913;-76
2022/04/01 08:25:18;;;;;;;;;;;;;;;12.70;36.82;101081.41;5053570;28;19909;-76
2022/04/01 08:27:43;;;;;;;;;;;;;;;11.13;39.49;101100.50;5052376;28;19923;-75
2022/04/01 08:30:09;;;;;;;;;;;;;;;11.07;39.69;101093.31;5053595;28;20404;-76
2022/04/01 08:32:36;;;;;;;;;;;;;;;11.24;38.08;101105.13;5053738;28;19921;-76
2022/04/01 08:35:01;;;;;;;;;;;;;;;11.94;38.05;101101.03;5052913;28;19986;-78
2022/04/01 08:37:27;;;;;;;;;;;;;;;11.85;37.90;101109.66;5053454;28;19920;-75
2022/04/01 08:39:53;;;;;;;;;;;;;;;12.12;36.77;101109.09;5052184;28;19917;-74
2022/04/01 08:42:18;;;;;;;;;;;;;;;12.60;37.17;101119.75;5052821;28;19967;-76
2022/04/01 08:44:44;;;;;;;;;;;;;;;12.58;35.97;101116.47;5052966;28;19916;-75
2022/04/01 08:47:09;;;;;;;;;;;;;;;12.44;36.60;101128.53;5052873;28;19924;-74
2022/04/01 08:49:35;;;;;;;;;;;;;;;10.96;38.66;101126.34;5053601;28;19935;-74
2022/04/01 08:52:00;;;;;;;;;;;;;;;12.06;38.13;101128.84;5053178;28;19921;-75
2022/04/01 08:54:26;;;;;;;;;;;;;;;11.42;38.59;101133.94;5052896;28;19917;-75
2022/04/01 08:56:51;;;;;;;;;;;;;;;12.42;37.07;101129.78;5051334;28;19936;-75
2022/04/01 08:59:16;;;;;;;;;;;;;;;11.84;38.18;101138.44;5052984;28;19916;-74
2022/04/01 09:01:43;;;;;;;;;;;;;;;11.40;38.58;101141.41;5053009;28;19923;-73
2022/04/01 09:04:15;;;;;;;;;;;;;;;11.65;37.96;101147.56;5052917;28;20482;-74
2022/04/01 09:06:41;;;;;;;;;;;;;;;12.20;37.00;101142.97;5050419;28;20371;-74
2022/04/01 09:09:19;;;;;;;;;;;;;;;11.92;37.29;101146.22;5052388;28;19916;-73
2022/04/01 09:12:02;;;;;;;;;;;;;;;12.33;37.55;101138.19;5050724;28;19948;-73
2022/04/01 09:14:27;;;;;;;;;;;;;;;11.38;38.41;101157.78;5050430;28;19917;-75
2022/04/01 09:16:52;;;;;;;;;;;;;;;12.61;37.28;101161.84;5051983;28;20007;-74
2022/04/01 09:19:27;;;;;;;;;;;;;;;12.58;36.28;101161.50;5051658;28;19944;-73
2022/04/01 09:21:52;;;;;;;;;;;;;;;11.29;38.52;101171.75;5052109;28;19917;-73
2022/04/01 09:24:18;;;;;;;;;;;;;;;11.99;37.56;101173.09;5052151;28;20376;-73
2022/04/01 09:26:43;;;;;;;;;;;;;;;11.36;38.54;101175.19;5052185;28;20343;-73
2022/04/01 09:29:10;;;;;;;;;;;;;;;11.76;38.00;101171.06;5052628;28;20372;-72
2022/04/01 09:31:37;;;;;;;;;;;;;;;12.01;37.36;101187.16;5052406;28;20457;-72
2022/04/01 09:34:06;;;;;;;;;;;;;;;12.26;37.54;101182.47;5051775;28;19913;-70
2022/04/01 09:36:33;;;;;;;;;;;;;;;12.05;37.67;101181.06;5052290;28;20377;-71
2022/04/01 09:38:58;;;;;;;;;;;;;;;12.27;37.51;101173.31;5051988;28;19912;-72
2022/04/01 09:41:27;;;;;;;;;;;;;;;11.81;38.09;101192.75;5052517;28;19928;-72
2022/04/01 09:43:59;;;;;;;;;;;;;;;11.10;40.03;101189.72;5051862;28;19913;-73
2022/04/01 09:46:26;;;;;;;;;;;;;;;12.44;37.87;101195.91;5052535;28;19982;-73
2022/04/01 09:48:55;;;;;;;;;;;;;;;12.57;38.12;101195.69;5053216;28;20409;-72
2022/04/01 09:51:20;;;;;;;;;;;;;;;13.00;37.55;101187.34;5052815;28;19928;-72
2022/04/01 09:53:53;;;;;;;;;;;;;;;13.00;37.44;101188.19;5052396;28;19912;-72
2022/04/01 09:56:34;;;;;;;;;;;;;;;11.94;39.18;101200.69;5051839;28;19916;-72
2022/04/01 09:58:59;;;;;;;;;;;;;;;12.26;38.06;101202.13;5049181;28;19960;-72
2022/04/01 10:01:24;;;;;;;;;;;;;;;11.98;38.55;101207.25;5051038;28;19974;-71
2022/04/01 10:03:50;;;;;;;;;;;;;;;11.94;38.87;101213.31;5049855;28;19928;-74
2022/04/01 10:06:15;;;;;;;;;;;;;;;12.20;38.50;101207.63;5050195;28;19952;-70
2022/04/01 10:08:40;;;;;;;;;;;;;;;11.91;40.25;101214.56;5050366;28;19970;-71
2022/04/01 10:11:06;;;;;;;;;;;;;;;12.46;39.18;101209.94;5047784;28;20023;-71
2022/04/01 10:13:32;;;;;;;;;;;;;;;11.63;40.33;101226.88;5051071;28;19915;-71
2022/04/01 10:15:58;;;;;;;;;;;;;;;11.52;40.17;101224.94;5050906;28;19944;-72
2022/04/01 10:18:24;;;;;;;;;;;;;;;11.88;40.13;101219.59;5049335;28;19916;-72
2022/04/01 10:20:53;;;;;;;;;;;;;;;11.91;40.01;101229.94;5051050;28;19982;-71
2022/04/01 10:23:18;;;;;;;;;;;;;;;11.29;41.46;101237.13;5050712;28;20006;-71
2022/04/01 10:25:55;;;;;;;;;;;;;;;10.92;42.50;101229.16;5082754;28;19987;-72
2022/04/01 10:28:21;;;;;;;;;;;;;;;12.16;40.65;101219.91;5055181;28;19993;-72
2022/04/01 10:30:51;;;;;;;;;;;;;;;12.30;40.70;101229.47;5055058;28;19927;-72
2022/04/01 10:33:20;;;;;;;;;;;;;;;11.31;42.53;101229.66;5055248;28;20436;-72
2022/04/01 10:35:46;;;;;;;;;;;;;;;12.42;40.13;101229.50;5055335;28;19944;-71
2022/04/01 10:38:11;;;;;;;;;;;;;;;12.04;41.12;101227.91;5055397;28;20005;-70
2022/04/01 10:40:38;;;;;;;;;;;;;;;12.52;39.11;101238.69;5055880;28;19920;-72
2022/04/01 10:43:12;;;;;;;;;;;;;;;11.70;40.98;101238.44;5054561;28;20423;-73
2022/04/01 10:45:39;;;;;;;;;;;;;;;12.09;39.94;101227.22;5054181;28;19917;-70
2022/04/01 10:53:58;;;;;;;;;;;;;;;12.25;38.90;101226.59;4994962;28;19928;-70
2022/04/01 10:56:24;;;;;;;;;;;;;;;12.05;39.01;101232.25;5012552;28;19918;-71
2022/04/01 10:59:02;;;;;;;;;;;;;;;11.82;39.30;101228.56;5012180;28;20288;-71
2022/04/01 11:01:28;;;;;;;;;;;;;;;11.68;39.04;101230.59;5000831;28;20266;-71
2022/04/01 11:03:59;;;;;;;;;;;;;;;12.74;37.02;101231.75;4993069;28;19917;-70
2022/04/01 11:06:26;;;;;;;;;;;;;;;13.31;36.82;101234.81;4984709;28;19921;-72
2022/04/01 11:08:55;;;;;;;;;;;;;;;12.86;36.96;101231.78;4992930;28;20012;-71
2022/04/01 11:11:20;;;;;;;;;;;;;;;12.66;37.19;101234.75;4976225;28;19953;-72
2022/04/01 11:14:03;;;;;;;;;;;;;;;12.84;35.89;101245.50;4995728;28;19982;-71
2022/04/01 11:16:43;;;;;;;;;;;;;;;13.16;35.53;101246.91;4976909;28;19917;-71
2022/04/01 11:19:10;;;;;;;;;;;;;;;12.49;35.10;101235.63;4996598;28;19976;-70
2022/04/01 11:21:35;;;;;;;;;;;;;;;13.24;34.43;101251.13;4987432;28;19957;-73
2022/04/01 11:24:04;;;;;;;;;;;;;;;12.53;35.55;101255.69;4992308;28;20356;-71
2022/04/01 11:26:42;;;;;;;;;;;;;;;12.03;36.22;101258.56;4990004;28;19943;-69
2022/04/01 11:29:17;;;;;;;;;;;;;;;13.65;34.61;101252.91;5049365;28;19917;-70
2022/04/01 11:31:43;;;;;;;;;;;;;;;13.18;34.74;101244.81;5050293;28;19917;-71
2022/04/01 11:34:09;;;;;;;;;;;;;;;12.92;35.18;101249.72;5051291;28;19967;-72
2022/04/01 11:36:35;;;;;;;;;;;;;;;12.80;35.35;101247.00;5051455;28;20347;-70
2022/04/01 11:39:02;;;;;;;;;;;;;;;13.14;34.78;101253.59;5049831;28;19963;-69
2022/04/01 11:41:27;;;;;;;;;;;;;;;13.86;34.58;101236.09;5050563;28;19974;-71
2022/04/01 11:43:52;;;;;;;;;;;;;;;13.69;34.57;101243.28;5051004;28;20359;-69
2022/04/01 11:46:18;;;;;;;;;;;;;;;13.49;34.96;101246.34;5051388;28;19912;-71
2022/04/01 11:48:45;;;;;;;;;;;;;;;13.75;33.86;101250.44;5050966;28;19920;-71
2022/04/01 11:51:14;;;;;;;;;;;;;;;14.28;34.65;101261.09;5048900;28;19924;-71
2022/04/01 11:53:46;;;;;;;;;;;;;;;13.16;36.18;101264.97;5050684;28;20376;-72
2022/04/01 11:56:12;;;;;;;;;;;;;;;13.98;35.35;101266.63;5050681;28;20144;-70
2022/04/01 11:58:46;;;;;;;;;;;;;;;14.36;33.54;101261.53;5050746;28;19916;-71
2022/04/01 12:01:12;;;;;;;;;;;;;;;13.44;35.71;101261.59;5050586;28;20398;-70
2022/04/01 12:03:37;;;;;;;;;;;;;;;13.99;35.18;101261.00;5050804;28;19912;-72
2022/04/01 12:08:46;;;;;;;;;;;;;;;13.36;36.02;101264.66;5048542;28;19924;-70
2022/04/01 12:11:12;;;;;;;;;;;;;;;13.15;36.97;101252.50;5049916;28;19924;-71
2022/04/01 12:13:42;;;;;;;;;;;;;;;14.09;34.92;101257.72;5051415;28;19923;-71
2022/04/01 12:16:07;;;;;;;;;;;;;;;14.06;34.73;101258.16;5050145;28;19960;-69
2022/04/01 12:18:32;;;;;;;;;;;;;;;13.47;36.41;101259.25;5050471;28;19955;-70
2022/04/01 12:20:59;;;;;;;;;;;;;;;13.28;36.36;101271.22;5050334;28;19917;-71
2022/04/01 12:23:26;;;;;;;;;;;;;;;13.16;36.83;101265.78;5049944;28;19920;-71
2022/04/01 12:25:55;;;;;;;;;;;;;;;14.03;34.63;101256.75;5049645;28;20010;-70
2022/04/01 12:28:24;;;;;;;;;;;;;;;14.44;34.99;101271.16;5048266;28;19916;-74
2022/04/01 12:30:50;;;;;;;;;;;;;;;14.26;34.69;101274.00;5049587;28;19928;-73
2022/04/01 12:33:20;;;;;;;;;;;;;;;12.76;37.55;101272.78;5049423;28;20280;-75
2022/04/01 12:35:55;;;;;;;;;;;;;;;13.56;36.49;101259.75;5049662;28;20377;-72
2022/04/01 12:38:20;;;;;;;;;;;;;;;14.38;34.49;101261.31;5046859;28;20395;-74
2022/04/01 12:40:45;;;;;;;;;;;;;;;14.70;34.41;101265.19;5049162;28;19916;-74
2022/04/01 12:43:29;;;;;;;;;;;;;;;13.82;34.86;101261.94;5049443;28;20368;-72
2022/04/01 12:46:13;;;;;;;;;;;;;;;13.79;35.00;101268.66;5046642;28;19940;-74
2022/04/01 12:48:50;;;;;;;;;;;;;;;13.12;35.92;101275.41;5047024;28;19920;-73
2022/04/01 12:51:20;;;;;;;;;;;;;;;12.70;36.47;101279.09;5045971;28;19974;-73
2022/04/01 12:53:55;;;;;;;;;;;;;;;12.43;37.01;101276.97;5048841;28;19917;-73
2022/04/01 12:56:22;;;;;;;;;;;;;;;13.07;35.10;101271.75;5047137;28;19966;-74
2022/04/01 12:58:48;;;;;;;;;;;;;;;13.65;34.22;101271.81;5049071;28;20042;-75